sensor_id;sensor_type;location;lat;lon;timestamp;P1;durP1;ratioP1;P2;durP2;ratioP2
4963;SDS011;2497;47.410;9.740;2023-02-23T00:01:16;13.73;;;6.67;;
4963;SDS011;2497;47.410;9.740;2023-02-23T00:03:46;9.87;;;6.87;;
4963;SDS011;2497;47.410;9.740;2023-02-23T00:06:14;17.20;;;8.63;;
4963;SDS011;2497;47.410;9.740;2023-02-23T00:08:43;16.57;;;8.37;;
4963;SDS011;2497;47.410;9.740;2023-02-23T00:11:13;16.00;;;7.70;;
4963;SDS011;2497;47.410;9.740;2023-02-23T00:13:42;18.77;;;8.10;;
4963;SDS011;2497;47.410;9.740;2023-02-23T00:16:12;14.40;;;7.40;;
4963;SDS011;2497;47.410;9.740;2023-02-23T00:18:41;15.73;;;7.90;;
4963;SDS011;2497;47.410;9.740;2023-02-23T00:21:12;17.60;;;8.77;;
4963;SDS011;2497;47.410;9.740;2023-02-23T00:23:41;19.50;;;8.20;;
4963;SDS011;2497;47.410;9.740;2023-02-23T00:26:09;18.53;;;8.30;;
4963;SDS011;2497;47.410;9.740;2023-02-23T00:28:39;19.27;;;8.63;;
4963;SDS011;2497;47.410;9.740;2023-02-23T00:31:08;19.23;;;9.87;;
4963;SDS011;2497;47.410;9.740;2023-02-23T00:33:38;20.40;;;9.47;;
4963;SDS011;2497;47.410;9.740;2023-02-23T00:36:07;24.00;;;10.57;;
4963;SDS011;2497;47.410;9.740;2023-02-23T00:38:36;30.30;;;11.87;;
4963;SDS011;2497;47.410;9.740;2023-02-23T00:41:04;22.23;;;11.40;;
4963;SDS011;2497;47.410;9.740;2023-02-23T00:43:34;29.07;;;12.53;;
4963;SDS011;2497;47.410;9.740;2023-02-23T00:46:04;23.00;;;11.90;;
4963;SDS011;2497;47.410;9.740;2023-02-23T00:48:32;29.93;;;12.63;;
4963;SDS011;2497;47.410;9.740;2023-02-23T00:51:00;25.17;;;12.50;;
4963;SDS011;2497;47.410;9.740;2023-02-23T00:53:28;24.20;;;12.37;;
4963;SDS011;2497;47.410;9.740;2023-02-23T00:55:56;27.30;;;12.17;;
4963;SDS011;2497;47.410;9.740;2023-02-23T00:58:23;30.20;;;13.80;;
4963;SDS011;2497;47.410;9.740;2023-02-23T01:00:51;31.57;;;13.40;;
4963;SDS011;2497;47.410;9.740;2023-02-23T01:03:20;26.03;;;12.13;;
4963;SDS011;2497;47.410;9.740;2023-02-23T01:05:47;28.43;;;13.23;;
4963;SDS011;2497;47.410;9.740;2023-02-23T01:08:15;31.50;;;13.60;;
4963;SDS011;2497;47.410;9.740;2023-02-23T01:10:44;35.63;;;14.40;;
4963;SDS011;2497;47.410;9.740;2023-02-23T01:13:17;30.90;;;13.00;;
4963;SDS011;2497;47.410;9.740;2023-02-23T01:15:44;27.67;;;12.60;;
4963;SDS011;2497;47.410;9.740;2023-02-23T01:18:12;27.70;;;12.83;;
4963;SDS011;2497;47.410;9.740;2023-02-23T01:20:41;30.10;;;15.40;;
4963;SDS011;2497;47.410;9.740;2023-02-23T01:23:09;33.80;;;14.73;;
4963;SDS011;2497;47.410;9.740;2023-02-23T01:25:38;35.97;;;15.60;;
4963;SDS011;2497;47.410;9.740;2023-02-23T01:28:05;30.43;;;14.43;;
4963;SDS011;2497;47.410;9.740;2023-02-23T01:30:33;36.53;;;15.90;;
4963;SDS011;2497;47.410;9.740;2023-02-23T01:33:00;36.93;;;15.47;;
4963;SDS011;2497;47.410;9.740;2023-02-23T01:35:28;32.27;;;15.13;;
4963;SDS011;2497;47.410;9.740;2023-02-23T01:37:56;34.40;;;16.87;;
4963;SDS011;2497;47.410;9.740;2023-02-23T01:40:24;27.27;;;13.50;;
4963;SDS011;2497;47.410;9.740;2023-02-23T01:42:54;45.37;;;16.27;;
4963;SDS011;2497;47.410;9.740;2023-02-23T01:45:27;37.50;;;16.33;;
4963;SDS011;2497;47.410;9.740;2023-02-23T01:48:00;30.93;;;14.20;;
4963;SDS011;2497;47.410;9.740;2023-02-23T01:50:36;36.67;;;15.87;;
4963;SDS011;2497;47.410;9.740;2023-02-23T01:53:09;34.17;;;15.03;;
4963;SDS011;2497;47.410;9.740;2023-02-23T01:55:36;35.67;;;14.10;;
4963;SDS011;2497;47.410;9.740;2023-02-23T01:58:06;34.80;;;14.67;;
4963;SDS011;2497;47.410;9.740;2023-02-23T02:00:40;42.50;;;15.70;;
4963;SDS011;2497;47.410;9.740;2023-02-23T02:03:13;37.30;;;15.70;;
4963;SDS011;2497;47.410;9.740;2023-02-23T02:05:46;30.47;;;14.30;;
4963;SDS011;2497;47.410;9.740;2023-02-23T02:08:17;33.90;;;14.30;;
4963;SDS011;2497;47.410;9.740;2023-02-23T02:10:48;32.63;;;13.50;;
4963;SDS011;2497;47.410;9.740;2023-02-23T02:13:20;28.00;;;14.33;;
4963;SDS011;2497;47.410;9.740;2023-02-23T02:15:57;32.13;;;14.97;;
4963;SDS011;2497;47.410;9.740;2023-02-23T02:18:52;34.87;;;17.20;;
4963;SDS011;2497;47.410;9.740;2023-02-23T02:30:53;54.93;;;22.60;;
4963;SDS011;2497;47.410;9.740;2023-02-23T02:33:53;54.33;;;22.20;;
4963;SDS011;2497;47.410;9.740;2023-02-23T02:36:42;46.83;;;21.10;;
4963;SDS011;2497;47.410;9.740;2023-02-23T02:39:32;49.23;;;23.37;;
4963;SDS011;2497;47.410;9.740;2023-02-23T02:42:07;56.47;;;23.30;;
4963;SDS011;2497;47.410;9.740;2023-02-23T02:44:49;50.63;;;19.33;;
4963;SDS011;2497;47.410;9.740;2023-02-23T02:47:21;42.40;;;19.70;;
4963;SDS011;2497;47.410;9.740;2023-02-23T02:49:55;58.60;;;23.00;;
4963;SDS011;2497;47.410;9.740;2023-02-23T02:52:32;71.80;;;26.70;;
4963;SDS011;2497;47.410;9.740;2023-02-23T02:55:05;61.90;;;26.40;;
4963;SDS011;2497;47.410;9.740;2023-02-23T02:57:39;60.20;;;25.17;;
4963;SDS011;2497;47.410;9.740;2023-02-23T03:00:11;62.90;;;26.30;;
4963;SDS011;2497;47.410;9.740;2023-02-23T03:03:00;59.20;;;26.60;;
4963;SDS011;2497;47.410;9.740;2023-02-23T03:05:46;60.37;;;24.77;;
4963;SDS011;2497;47.410;9.740;2023-02-23T03:08:36;60.73;;;27.60;;
4963;SDS011;2497;47.410;9.740;2023-02-23T03:11:23;66.87;;;25.90;;
4963;SDS011;2497;47.410;9.740;2023-02-23T03:14:23;59.47;;;24.80;;
4963;SDS011;2497;47.410;9.740;2023-02-23T03:17:17;68.50;;;27.57;;
4963;SDS011;2497;47.410;9.740;2023-02-23T03:20:14;64.60;;;28.03;;
4963;SDS011;2497;47.410;9.740;2023-02-23T03:23:07;77.63;;;29.67;;
4963;SDS011;2497;47.410;9.740;2023-02-23T03:26:01;74.60;;;26.80;;
4963;SDS011;2497;47.410;9.740;2023-02-23T03:28:52;56.93;;;25.53;;
4963;SDS011;2497;47.410;9.740;2023-02-23T03:31:45;53.80;;;25.33;;
4963;SDS011;2497;47.410;9.740;2023-02-23T03:34:35;56.47;;;26.30;;
4963;SDS011;2497;47.410;9.740;2023-02-23T03:37:24;64.73;;;26.13;;
4963;SDS011;2497;47.410;9.740;2023-02-23T03:40:15;64.63;;;27.20;;
4963;SDS011;2497;47.410;9.740;2023-02-23T03:43:06;63.50;;;26.10;;
4963;SDS011;2497;47.410;9.740;2023-02-23T03:45:54;76.07;;;28.60;;
4963;SDS011;2497;47.410;9.740;2023-02-23T03:48:40;66.53;;;28.90;;
4963;SDS011;2497;47.410;9.740;2023-02-23T03:51:29;62.83;;;25.70;;
4963;SDS011;2497;47.410;9.740;2023-02-23T03:54:19;73.37;;;27.43;;
4963;SDS011;2497;47.410;9.740;2023-02-23T03:57:14;69.20;;;28.67;;
4963;SDS011;2497;47.410;9.740;2023-02-23T04:00:05;65.87;;;26.53;;
4963;SDS011;2497;47.410;9.740;2023-02-23T04:02:54;59.47;;;25.77;;
4963;SDS011;2497;47.410;9.740;2023-02-23T04:05:42;74.37;;;27.50;;
4963;SDS011;2497;47.410;9.740;2023-02-23T04:08:29;59.10;;;27.20;;
4963;SDS011;2497;47.410;9.740;2023-02-23T04:11:18;67.20;;;27.17;;
4963;SDS011;2497;47.410;9.740;2023-02-23T04:14:07;60.17;;;29.10;;
4963;SDS011;2497;47.410;9.740;2023-02-23T04:16:41;62.17;;;25.40;;
4963;SDS011;2497;47.410;9.740;2023-02-23T04:19:07;58.30;;;25.30;;
4963;SDS011;2497;47.410;9.740;2023-02-23T04:21:35;49.23;;;23.90;;
4963;SDS011;2497;47.410;9.740;2023-02-23T04:24:02;49.07;;;22.90;;
4963;SDS011;2497;47.410;9.740;2023-02-23T04:26:29;56.63;;;22.77;;
4963;SDS011;2497;47.410;9.740;2023-02-23T04:28:56;49.80;;;22.27;;
4963;SDS011;2497;47.410;9.740;2023-02-23T04:31:23;50.43;;;22.10;;
4963;SDS011;2497;47.410;9.740;2023-02-23T04:33:52;40.63;;;17.23;;
4963;SDS011;2497;47.410;9.740;2023-02-23T04:36:19;37.57;;;15.50;;
4963;SDS011;2497;47.410;9.740;2023-02-23T04:38:46;34.20;;;14.80;;
4963;SDS011;2497;47.410;9.740;2023-02-23T04:41:13;30.57;;;12.67;;
4963;SDS011;2497;47.410;9.740;2023-02-23T04:43:40;35.83;;;14.40;;
4963;SDS011;2497;47.410;9.740;2023-02-23T04:46:07;40.13;;;15.87;;
4963;SDS011;2497;47.410;9.740;2023-02-23T04:48:34;33.87;;;15.50;;
4963;SDS011;2497;47.410;9.740;2023-02-23T04:51:03;43.40;;;17.30;;
4963;SDS011;2497;47.410;9.740;2023-02-23T04:53:30;31.10;;;16.17;;
4963;SDS011;2497;47.410;9.740;2023-02-23T04:55:57;41.90;;;17.47;;
4963;SDS011;2497;47.410;9.740;2023-02-23T04:58:25;28.80;;;15.47;;
4963;SDS011;2497;47.410;9.740;2023-02-23T05:00:52;34.03;;;15.20;;
4963;SDS011;2497;47.410;9.740;2023-02-23T05:03:19;51.97;;;24.00;;
4963;SDS011;2497;47.410;9.740;2023-02-23T05:05:46;64.50;;;24.40;;
4963;SDS011;2497;47.410;9.740;2023-02-23T05:08:14;29.83;;;14.50;;
4963;SDS011;2497;47.410;9.740;2023-02-23T05:10:42;24.43;;;8.87;;
4963;SDS011;2497;47.410;9.740;2023-02-23T05:13:09;23.23;;;8.30;;
4963;SDS011;2497;47.410;9.740;2023-02-23T05:15:36;20.10;;;8.80;;
4963;SDS011;2497;47.410;9.740;2023-02-23T05:18:03;14.50;;;6.90;;
4963;SDS011;2497;47.410;9.740;2023-02-23T05:20:31;15.93;;;6.97;;
4963;SDS011;2497;47.410;9.740;2023-02-23T05:22:58;14.57;;;6.20;;
4963;SDS011;2497;47.410;9.740;2023-02-23T05:25:27;14.13;;;6.13;;
4963;SDS011;2497;47.410;9.740;2023-02-23T05:27:54;11.90;;;6.17;;
4963;SDS011;2497;47.410;9.740;2023-02-23T05:30:21;13.47;;;6.17;;
4963;SDS011;2497;47.410;9.740;2023-02-23T05:32:48;20.63;;;7.30;;
4963;SDS011;2497;47.410;9.740;2023-02-23T05:35:15;11.90;;;6.30;;
4963;SDS011;2497;47.410;9.740;2023-02-23T05:37:42;14.07;;;7.90;;
4963;SDS011;2497;47.410;9.740;2023-02-23T05:40:10;14.30;;;6.60;;
4963;SDS011;2497;47.410;9.740;2023-02-23T05:42:39;66.60;;;27.50;;
4963;SDS011;2497;47.410;9.740;2023-02-23T05:45:06;71.70;;;33.37;;
4963;SDS011;2497;47.410;9.740;2023-02-23T05:47:34;85.07;;;33.77;;
4963;SDS011;2497;47.410;9.740;2023-02-23T05:50:03;92.90;;;36.37;;
4963;SDS011;2497;47.410;9.740;2023-02-23T05:52:30;70.40;;;33.73;;
4963;SDS011;2497;47.410;9.740;2023-02-23T05:54:58;56.80;;;24.53;;
4963;SDS011;2497;47.410;9.740;2023-02-23T05:57:25;37.30;;;17.63;;
4963;SDS011;2497;47.410;9.740;2023-02-23T05:59:54;26.07;;;13.70;;
4963;SDS011;2497;47.410;9.740;2023-02-23T06:02:21;27.77;;;11.10;;
4963;SDS011;2497;47.410;9.740;2023-02-23T06:04:48;43.53;;;21.50;;
4963;SDS011;2497;47.410;9.740;2023-02-23T06:07:15;65.97;;;24.87;;
4963;SDS011;2497;47.410;9.740;2023-02-23T06:09:42;70.00;;;28.37;;
4963;SDS011;2497;47.410;9.740;2023-02-23T06:12:09;57.90;;;22.07;;
4963;SDS011;2497;47.410;9.740;2023-02-23T06:14:36;27.60;;;12.17;;
4963;SDS011;2497;47.410;9.740;2023-02-23T06:17:05;18.43;;;9.00;;
4963;SDS011;2497;47.410;9.740;2023-02-23T06:19:32;15.70;;;7.30;;
4963;SDS011;2497;47.410;9.740;2023-02-23T06:21:59;18.80;;;6.47;;
4963;SDS011;2497;47.410;9.740;2023-02-23T06:24:27;43.40;;;18.90;;
4963;SDS011;2497;47.410;9.740;2023-02-23T06:26:54;55.93;;;24.27;;
4963;SDS011;2497;47.410;9.740;2023-02-23T06:29:21;64.17;;;27.93;;
4963;SDS011;2497;47.410;9.740;2023-02-23T06:31:49;81.93;;;32.73;;
4963;SDS011;2497;47.410;9.740;2023-02-23T06:34:17;61.13;;;27.17;;
4963;SDS011;2497;47.410;9.740;2023-02-23T06:36:44;55.17;;;23.20;;
4963;SDS011;2497;47.410;9.740;2023-02-23T06:39:12;55.47;;;21.67;;
4963;SDS011;2497;47.410;9.740;2023-02-23T06:41:39;51.43;;;21.37;;
4963;SDS011;2497;47.410;9.740;2023-02-23T06:44:06;64.37;;;28.27;;
4963;SDS011;2497;47.410;9.740;2023-02-23T06:46:33;52.30;;;20.97;;
4963;SDS011;2497;47.410;9.740;2023-02-23T06:49:02;55.30;;;23.87;;
4963;SDS011;2497;47.410;9.740;2023-02-23T06:51:30;43.33;;;17.23;;
4963;SDS011;2497;47.410;9.740;2023-02-23T06:53:58;33.37;;;14.60;;
4963;SDS011;2497;47.410;9.740;2023-02-23T06:56:25;39.30;;;16.47;;
4963;SDS011;2497;47.410;9.740;2023-02-23T06:58:52;38.83;;;16.70;;
4963;SDS011;2497;47.410;9.740;2023-02-23T07:01:19;35.43;;;15.13;;
4963;SDS011;2497;47.410;9.740;2023-02-23T07:03:46;26.37;;;14.23;;
4963;SDS011;2497;47.410;9.740;2023-02-23T07:06:13;38.10;;;16.60;;
4963;SDS011;2497;47.410;9.740;2023-02-23T07:08:42;32.00;;;13.30;;
4963;SDS011;2497;47.410;9.740;2023-02-23T07:11:12;32.30;;;11.67;;
4963;SDS011;2497;47.410;9.740;2023-02-23T07:13:40;26.73;;;9.00;;
4963;SDS011;2497;47.410;9.740;2023-02-23T07:16:08;14.63;;;6.53;;
4963;SDS011;2497;47.410;9.740;2023-02-23T07:18:36;53.63;;;23.73;;
4963;SDS011;2497;47.410;9.740;2023-02-23T07:21:03;80.40;;;30.77;;
4963;SDS011;2497;47.410;9.740;2023-02-23T07:23:31;80.27;;;33.40;;
4963;SDS011;2497;47.410;9.740;2023-02-23T07:26:00;95.37;;;37.80;;
4963;SDS011;2497;47.410;9.740;2023-02-23T07:28:27;90.97;;;36.40;;
4963;SDS011;2497;47.410;9.740;2023-02-23T07:30:54;88.20;;;34.97;;
4963;SDS011;2497;47.410;9.740;2023-02-23T07:33:22;81.30;;;35.73;;
4963;SDS011;2497;47.410;9.740;2023-02-23T07:35:49;92.20;;;34.80;;
4963;SDS011;2497;47.410;9.740;2023-02-23T07:38:17;88.20;;;35.20;;
4963;SDS011;2497;47.410;9.740;2023-02-23T07:40:44;87.73;;;35.67;;
4963;SDS011;2497;47.410;9.740;2023-02-23T07:43:13;88.03;;;35.07;;
4963;SDS011;2497;47.410;9.740;2023-02-23T07:45:40;86.23;;;34.90;;
4963;SDS011;2497;47.410;9.740;2023-02-23T07:48:07;78.60;;;34.37;;
4963;SDS011;2497;47.410;9.740;2023-02-23T07:50:34;97.33;;;35.27;;
4963;SDS011;2497;47.410;9.740;2023-02-23T07:53:02;81.23;;;34.57;;
4963;SDS011;2497;47.410;9.740;2023-02-23T07:55:29;90.47;;;35.97;;
4963;SDS011;2497;47.410;9.740;2023-02-23T07:57:56;85.00;;;38.07;;
4963;SDS011;2497;47.410;9.740;2023-02-23T08:00:25;92.97;;;36.40;;
4963;SDS011;2497;47.410;9.740;2023-02-23T08:02:52;90.30;;;39.53;;
4963;SDS011;2497;47.410;9.740;2023-02-23T08:05:19;91.20;;;36.70;;
4963;SDS011;2497;47.410;9.740;2023-02-23T08:07:46;87.17;;;34.90;;
4963;SDS011;2497;47.410;9.740;2023-02-23T08:10:13;98.47;;;39.30;;
4963;SDS011;2497;47.410;9.740;2023-02-23T08:12:43;87.77;;;34.20;;
4963;SDS011;2497;47.410;9.740;2023-02-23T08:15:10;95.87;;;36.97;;
4963;SDS011;2497;47.410;9.740;2023-02-23T08:17:39;88.27;;;38.30;;
4963;SDS011;2497;47.410;9.740;2023-02-23T08:20:08;88.20;;;35.77;;
4963;SDS011;2497;47.410;9.740;2023-02-23T08:22:35;87.90;;;35.83;;
4963;SDS011;2497;47.410;9.740;2023-02-23T08:25:03;100.13;;;35.50;;
4963;SDS011;2497;47.410;9.740;2023-02-23T08:27:32;77.13;;;31.90;;
4963;SDS011;2497;47.410;9.740;2023-02-23T08:30:00;63.57;;;29.20;;
4963;SDS011;2497;47.410;9.740;2023-02-23T08:32:31;72.90;;;27.77;;
4963;SDS011;2497;47.410;9.740;2023-02-23T08:35:00;68.37;;;29.63;;
4963;SDS011;2497;47.410;9.740;2023-02-23T08:37:28;59.93;;;26.10;;
4963;SDS011;2497;47.410;9.740;2023-02-23T08:39:55;57.00;;;25.53;;
4963;SDS011;2497;47.410;9.740;2023-02-23T08:42:23;50.40;;;23.80;;
4963;SDS011;2497;47.410;9.740;2023-02-23T08:44:50;66.50;;;25.13;;
4963;SDS011;2497;47.410;9.740;2023-02-23T08:47:17;59.57;;;25.60;;
4963;SDS011;2497;47.410;9.740;2023-02-23T08:49:46;66.30;;;28.10;;
4963;SDS011;2497;47.410;9.740;2023-02-23T08:52:14;61.10;;;27.47;;
4963;SDS011;2497;47.410;9.740;2023-02-23T08:54:41;59.50;;;25.13;;
4963;SDS011;2497;47.410;9.740;2023-02-23T08:57:09;57.20;;;25.50;;
4963;SDS011;2497;47.410;9.740;2023-02-23T08:59:36;58.90;;;24.37;;
4963;SDS011;2497;47.410;9.740;2023-02-23T09:02:05;49.43;;;23.50;;
4963;SDS011;2497;47.410;9.740;2023-02-23T09:04:33;49.10;;;20.87;;
4963;SDS011;2497;47.410;9.740;2023-02-23T09:07:01;37.80;;;17.80;;
4963;SDS011;2497;47.410;9.740;2023-02-23T09:09:30;35.87;;;16.80;;
4963;SDS011;2497;47.410;9.740;2023-02-23T09:11:58;27.70;;;13.20;;
4963;SDS011;2497;47.410;9.740;2023-02-23T09:14:25;30.53;;;14.00;;
4963;SDS011;2497;47.410;9.740;2023-02-23T09:16:53;28.80;;;11.93;;
4963;SDS011;2497;47.410;9.740;2023-02-23T09:19:21;37.40;;;16.90;;
4963;SDS011;2497;47.410;9.740;2023-02-23T09:21:48;48.67;;;21.13;;
4963;SDS011;2497;47.410;9.740;2023-02-23T09:24:15;45.00;;;20.93;;
4963;SDS011;2497;47.410;9.740;2023-02-23T09:26:44;41.60;;;17.80;;
4963;SDS011;2497;47.410;9.740;2023-02-23T09:29:11;43.10;;;17.17;;
4963;SDS011;2497;47.410;9.740;2023-02-23T09:31:38;42.23;;;17.63;;
4963;SDS011;2497;47.410;9.740;2023-02-23T09:34:07;38.23;;;16.03;;
4963;SDS011;2497;47.410;9.740;2023-02-23T09:36:36;42.33;;;19.47;;
4963;SDS011;2497;47.410;9.740;2023-02-23T09:39:04;41.10;;;21.20;;
4963;SDS011;2497;47.410;9.740;2023-02-23T09:41:48;43.93;;;20.47;;
4963;SDS011;2497;47.410;9.740;2023-02-23T09:44:24;52.97;;;22.00;;
4963;SDS011;2497;47.410;9.740;2023-02-23T09:47:09;38.70;;;20.00;;
4963;SDS011;2497;47.410;9.740;2023-02-23T09:49:52;43.10;;;19.27;;
4963;SDS011;2497;47.410;9.740;2023-02-23T09:52:21;43.77;;;20.17;;
4963;SDS011;2497;47.410;9.740;2023-02-23T09:54:52;45.23;;;19.90;;
4963;SDS011;2497;47.410;9.740;2023-02-23T09:57:22;44.83;;;17.90;;
4963;SDS011;2497;47.410;9.740;2023-02-23T09:59:58;36.30;;;19.10;;
4963;SDS011;2497;47.410;9.740;2023-02-23T10:02:27;33.70;;;18.50;;
4963;SDS011;2497;47.410;9.740;2023-02-23T10:05:00;37.40;;;17.00;;
4963;SDS011;2497;47.410;9.740;2023-02-23T10:07:33;35.07;;;15.70;;
4963;SDS011;2497;47.410;9.740;2023-02-23T10:10:12;35.03;;;14.67;;
4963;SDS011;2497;47.410;9.740;2023-02-23T10:12:49;34.00;;;15.33;;
4963;SDS011;2497;47.410;9.740;2023-02-23T10:15:25;27.83;;;13.90;;
4963;SDS011;2497;47.410;9.740;2023-02-23T10:17:59;40.33;;;15.10;;
4963;SDS011;2497;47.410;9.740;2023-02-23T10:20:37;29.67;;;15.67;;
4963;SDS011;2497;47.410;9.740;2023-02-23T10:23:12;36.63;;;16.50;;
4963;SDS011;2497;47.410;9.740;2023-02-23T10:25:43;31.13;;;14.80;;
4963;SDS011;2497;47.410;9.740;2023-02-23T10:28:15;33.73;;;15.47;;
4963;SDS011;2497;47.410;9.740;2023-02-23T10:30:44;36.30;;;16.37;;
4963;SDS011;2497;47.410;9.740;2023-02-23T10:33:12;31.90;;;15.00;;
4963;SDS011;2497;47.410;9.740;2023-02-23T10:35:42;35.97;;;13.60;;
4963;SDS011;2497;47.410;9.740;2023-02-23T10:38:13;22.70;;;12.47;;
4963;SDS011;2497;47.410;9.740;2023-02-23T10:40:41;17.60;;;9.17;;
4963;SDS011;2497;47.410;9.740;2023-02-23T10:43:10;19.60;;;9.13;;
4963;SDS011;2497;47.410;9.740;2023-02-23T10:45:40;31.07;;;9.80;;
4963;SDS011;2497;47.410;9.740;2023-02-23T10:48:13;19.03;;;10.00;;
4963;SDS011;2497;47.410;9.740;2023-02-23T10:50:43;18.40;;;9.40;;
4963;SDS011;2497;47.410;9.740;2023-02-23T10:53:14;18.90;;;9.90;;
4963;SDS011;2497;47.410;9.740;2023-02-23T10:55:46;17.87;;;7.83;;
4963;SDS011;2497;47.410;9.740;2023-02-23T10:58:26;15.43;;;8.50;;
4963;SDS011;2497;47.410;9.740;2023-02-23T11:00:56;23.20;;;8.23;;
4963;SDS011;2497;47.410;9.740;2023-02-23T11:03:26;19.83;;;9.07;;
4963;SDS011;2497;47.410;9.740;2023-02-23T11:05:58;22.60;;;10.30;;
4963;SDS011;2497;47.410;9.740;2023-02-23T11:08:27;17.00;;;8.97;;
4963;SDS011;2497;47.410;9.740;2023-02-23T11:11:10;17.77;;;8.63;;
4963;SDS011;2497;47.410;9.740;2023-02-23T11:13:46;17.03;;;8.07;;
4963;SDS011;2497;47.410;9.740;2023-02-23T11:16:17;13.93;;;7.73;;
4963;SDS011;2497;47.410;9.740;2023-02-23T11:18:48;14.53;;;6.53;;
4963;SDS011;2497;47.410;9.740;2023-02-23T11:21:20;15.67;;;6.80;;
4963;SDS011;2497;47.410;9.740;2023-02-23T11:23:50;16.10;;;6.97;;
4963;SDS011;2497;47.410;9.740;2023-02-23T11:26:21;14.70;;;6.63;;
4963;SDS011;2497;47.410;9.740;2023-02-23T11:28:53;16.33;;;6.23;;
4963;SDS011;2497;47.410;9.740;2023-02-23T11:31:27;14.97;;;5.70;;
4963;SDS011;2497;47.410;9.740;2023-02-23T11:33:58;11.13;;;6.43;;
4963;SDS011;2497;47.410;9.740;2023-02-23T11:36:28;26.30;;;6.53;;
4963;SDS011;2497;47.410;9.740;2023-02-23T11:39:01;12.60;;;5.70;;
4963;SDS011;2497;47.410;9.740;2023-02-23T11:41:32;19.70;;;7.57;;
4963;SDS011;2497;47.410;9.740;2023-02-23T11:44:01;26.23;;;6.97;;
4963;SDS011;2497;47.410;9.740;2023-02-23T11:46:31;15.17;;;6.27;;
4963;SDS011;2497;47.410;9.740;2023-02-23T11:49:02;12.53;;;6.90;;
4963;SDS011;2497;47.410;9.740;2023-02-23T11:51:32;13.27;;;5.87;;
4963;SDS011;2497;47.410;9.740;2023-02-23T11:54:03;13.37;;;6.93;;
4963;SDS011;2497;47.410;9.740;2023-02-23T11:56:34;14.13;;;6.73;;
4963;SDS011;2497;47.410;9.740;2023-02-23T11:59:03;12.07;;;6.37;;
4963;SDS011;2497;47.410;9.740;2023-02-23T12:01:38;14.80;;;5.93;;
4963;SDS011;2497;47.410;9.740;2023-02-23T12:04:09;9.27;;;4.60;;
4963;SDS011;2497;47.410;9.740;2023-02-23T12:06:55;11.63;;;4.60;;
4963;SDS011;2497;47.410;9.740;2023-02-23T12:09:52;9.93;;;5.57;;
4963;SDS011;2497;47.410;9.740;2023-02-23T12:12:24;10.10;;;4.90;;
4963;SDS011;2497;47.410;9.740;2023-02-23T12:14:55;9.03;;;4.00;;
4963;SDS011;2497;47.410;9.740;2023-02-23T12:17:30;9.53;;;4.63;;
4963;SDS011;2497;47.410;9.740;2023-02-23T12:20:03;11.27;;;5.00;;
4963;SDS011;2497;47.410;9.740;2023-02-23T12:22:36;10.50;;;4.50;;
4963;SDS011;2497;47.410;9.740;2023-02-23T12:25:10;9.30;;;4.50;;
4963;SDS011;2497;47.410;9.740;2023-02-23T12:27:45;8.93;;;4.30;;
4963;SDS011;2497;47.410;9.740;2023-02-23T12:30:20;14.00;;;4.87;;
4963;SDS011;2497;47.410;9.740;2023-02-23T12:32:55;9.60;;;4.30;;
4963;SDS011;2497;47.410;9.740;2023-02-23T12:35:28;7.17;;;4.17;;
4963;SDS011;2497;47.410;9.740;2023-02-23T12:37:59;10.63;;;4.40;;
4963;SDS011;2497;47.410;9.740;2023-02-23T12:40:31;5.90;;;4.30;;
4963;SDS011;2497;47.410;9.740;2023-02-23T12:43:02;5.10;;;3.53;;
4963;SDS011;2497;47.410;9.740;2023-02-23T12:45:38;9.10;;;4.47;;
4963;SDS011;2497;47.410;9.740;2023-02-23T12:48:16;9.27;;;4.50;;
4963;SDS011;2497;47.410;9.740;2023-02-23T12:50:53;8.97;;;3.63;;
4963;SDS011;2497;47.410;9.740;2023-02-23T12:53:24;6.33;;;3.70;;
4963;SDS011;2497;47.410;9.740;2023-02-23T12:56:01;6.50;;;4.03;;
4963;SDS011;2497;47.410;9.740;2023-02-23T12:58:41;10.07;;;4.23;;
4963;SDS011;2497;47.410;9.740;2023-02-23T13:01:15;5.60;;;3.53;;
4963;SDS011;2497;47.410;9.740;2023-02-23T13:06:55;14.83;;;5.20;;
4963;SDS011;2497;47.410;9.740;2023-02-23T13:09:34;9.60;;;5.13;;
4963;SDS011;2497;47.410;9.740;2023-02-23T13:14:56;10.50;;;5.17;;
4963;SDS011;2497;47.410;9.740;2023-02-23T13:17:30;9.37;;;4.77;;
4963;SDS011;2497;47.410;9.740;2023-02-23T13:20:07;14.43;;;4.80;;
4963;SDS011;2497;47.410;9.740;2023-02-23T13:22:44;8.43;;;5.00;;
4963;SDS011;2497;47.410;9.740;2023-02-23T13:25:19;8.87;;;5.53;;
4963;SDS011;2497;47.410;9.740;2023-02-23T13:27:55;12.73;;;5.80;;
4963;SDS011;2497;47.410;9.740;2023-02-23T13:30:25;10.00;;;5.20;;
4963;SDS011;2497;47.410;9.740;2023-02-23T13:32:56;10.77;;;5.63;;
4963;SDS011;2497;47.410;9.740;2023-02-23T13:35:26;12.33;;;5.93;;
4963;SDS011;2497;47.410;9.740;2023-02-23T13:38:03;13.63;;;5.50;;
4963;SDS011;2497;47.410;9.740;2023-02-23T13:40:39;10.53;;;5.67;;
4963;SDS011;2497;47.410;9.740;2023-02-23T13:43:12;11.47;;;6.27;;
4963;SDS011;2497;47.410;9.740;2023-02-23T13:45:51;9.50;;;6.23;;
4963;SDS011;2497;47.410;9.740;2023-02-23T13:48:30;10.17;;;5.97;;
4963;SDS011;2497;47.410;9.740;2023-02-23T13:51:12;8.97;;;5.40;;
4963;SDS011;2497;47.410;9.740;2023-02-23T13:53:46;10.83;;;5.50;;
4963;SDS011;2497;47.410;9.740;2023-02-23T13:56:25;12.70;;;4.67;;
4963;SDS011;2497;47.410;9.740;2023-02-23T13:58:57;11.13;;;5.00;;
4963;SDS011;2497;47.410;9.740;2023-02-23T14:01:26;7.50;;;4.97;;
4963;SDS011;2497;47.410;9.740;2023-02-23T14:03:57;14.23;;;4.70;;
4963;SDS011;2497;47.410;9.740;2023-02-23T14:06:26;12.70;;;5.60;;
4963;SDS011;2497;47.410;9.740;2023-02-23T14:08:58;11.73;;;5.40;;
4963;SDS011;2497;47.410;9.740;2023-02-23T14:11:34;15.80;;;5.13;;
4963;SDS011;2497;47.410;9.740;2023-02-23T14:14:08;11.27;;;5.47;;
4963;SDS011;2497;47.410;9.740;2023-02-23T14:16:38;11.37;;;4.90;;
4963;SDS011;2497;47.410;9.740;2023-02-23T14:19:08;14.00;;;5.00;;
4963;SDS011;2497;47.410;9.740;2023-02-23T14:21:44;14.97;;;5.80;;
4963;SDS011;2497;47.410;9.740;2023-02-23T14:24:21;10.77;;;5.77;;
4963;SDS011;2497;47.410;9.740;2023-02-23T14:30:10;13.37;;;5.93;;
4963;SDS011;2497;47.410;9.740;2023-02-23T14:32:59;9.40;;;6.00;;
4963;SDS011;2497;47.410;9.740;2023-02-23T14:35:35;10.73;;;5.10;;
4963;SDS011;2497;47.410;9.740;2023-02-23T14:38:09;10.97;;;5.27;;
4963;SDS011;2497;47.410;9.740;2023-02-23T14:40:44;18.30;;;7.40;;
4963;SDS011;2497;47.410;9.740;2023-02-23T14:46:18;16.13;;;7.70;;
4963;SDS011;2497;47.410;9.740;2023-02-23T14:48:55;17.90;;;8.83;;
4963;SDS011;2497;47.410;9.740;2023-02-23T14:51:27;14.30;;;7.27;;
4963;SDS011;2497;47.410;9.740;2023-02-23T14:54:09;19.77;;;7.57;;
4963;SDS011;2497;47.410;9.740;2023-02-23T14:56:50;14.70;;;6.90;;
4963;SDS011;2497;47.410;9.740;2023-02-23T14:59:21;9.27;;;5.50;;
4963;SDS011;2497;47.410;9.740;2023-02-23T15:01:51;10.83;;;5.90;;
4963;SDS011;2497;47.410;9.740;2023-02-23T15:04:20;12.10;;;6.17;;
4963;SDS011;2497;47.410;9.740;2023-02-23T15:06:51;13.00;;;7.10;;
4963;SDS011;2497;47.410;9.740;2023-02-23T15:09:22;15.87;;;6.90;;
4963;SDS011;2497;47.410;9.740;2023-02-23T15:11:58;14.60;;;5.60;;
4963;SDS011;2497;47.410;9.740;2023-02-23T15:14:29;10.77;;;5.77;;
4963;SDS011;2497;47.410;9.740;2023-02-23T15:16:59;24.70;;;9.63;;
4963;SDS011;2497;47.410;9.740;2023-02-23T15:19:30;17.83;;;9.80;;
4963;SDS011;2497;47.410;9.740;2023-02-23T15:22:01;15.47;;;7.80;;
4963;SDS011;2497;47.410;9.740;2023-02-23T15:24:31;22.00;;;7.37;;
4963;SDS011;2497;47.410;9.740;2023-02-23T15:27:15;14.13;;;6.73;;
4963;SDS011;2497;47.410;9.740;2023-02-23T15:29:44;25.63;;;6.10;;
4963;SDS011;2497;47.410;9.740;2023-02-23T15:32:17;12.30;;;5.80;;
4963;SDS011;2497;47.410;9.740;2023-02-23T15:34:45;12.57;;;6.37;;
4963;SDS011;2497;47.410;9.740;2023-02-23T15:37:18;9.70;;;5.43;;
4963;SDS011;2497;47.410;9.740;2023-02-23T15:39:51;14.50;;;7.23;;
4963;SDS011;2497;47.410;9.740;2023-02-23T15:42:23;11.00;;;4.97;;
4963;SDS011;2497;47.410;9.740;2023-02-23T15:44:55;11.80;;;6.17;;